createdAt,value
2022-08-09T00:01:52.814Z,100983.61
2022-08-09T00:04:34.189Z,100981.75
2022-08-09T00:07:07.842Z,100979.73
2022-08-09T00:09:40.684Z,100978.69
2022-08-09T00:12:15.597Z,100981.91
2022-08-09T00:14:55.972Z,100985.02
2022-08-09T00:18:10.362Z,100986.27
2022-08-09T00:20:15.385Z,100986.11
2022-08-09T00:22:44.981Z,100984.20
2022-08-09T00:25:23.099Z,100984.41
2022-08-09T00:28:00.989Z,100980.91
2022-08-09T00:30:35.921Z,100981.89
2022-08-09T00:33:05.702Z,100976.76
2022-08-09T00:35:43.506Z,100978.02
2022-08-09T00:38:13.352Z,100978.73
2022-08-09T00:40:53.257Z,100975.17
2022-08-09T00:44:20.664Z,100975.48
2022-08-09T00:46:14.562Z,100975.81
2022-08-09T00:49:01.556Z,100971.71
2022-08-09T00:51:33.811Z,100968.60
2022-08-09T00:54:11.429Z,100969.95
2022-08-09T00:56:40.208Z,100972.73
2022-08-09T00:59:10.275Z,100973.23
2022-08-09T01:01:45.093Z,100968.25
2022-08-09T01:04:34.415Z,100973.73
2022-08-09T01:07:37.670Z,100975.47
2022-08-09T01:10:22.905Z,100979.40
2022-08-09T01:13:07.435Z,100978.03
2022-08-09T01:15:52.349Z,100981.96
2022-08-09T01:18:30.504Z,100984.13
2022-08-09T01:21:09.982Z,100981.34
2022-08-09T01:24:05.006Z,100982.86
2022-08-09T01:27:01.434Z,100980.93
2022-08-09T01:29:55.095Z,100976.39
2022-08-09T01:32:34.042Z,100979.02
2022-08-09T01:35:39.235Z,100979.78
2022-08-09T01:38:16.735Z,100979.98
2022-08-09T01:41:04.836Z,100975.54
2022-08-09T01:43:42.203Z,100980.13
2022-08-09T01:46:26.979Z,100987.02
2022-08-09T01:49:17.509Z,100983.33
2022-08-09T01:51:53.192Z,100989.27
2022-08-09T01:54:33.776Z,100986.76
2022-08-09T01:57:10.353Z,100990.59
2022-08-09T01:59:52.067Z,100989.59
2022-08-09T02:02:34.041Z,100988.77
2022-08-09T02:05:15.396Z,100989.59
2022-08-09T02:08:38.438Z,100986.45
2022-08-09T02:10:51.828Z,100977.16
2022-08-09T02:13:26.209Z,100978.18
2022-08-09T02:16:10.565Z,100982.30
2022-08-09T02:18:43.049Z,100978.91
2022-08-09T02:21:22.158Z,100982.23
2022-08-09T02:23:56.436Z,100982.73
2022-08-09T02:26:28.419Z,100982.02
2022-08-09T02:29:02.098Z,100985.66
2022-08-09T02:31:36.448Z,100991.88
2022-08-09T02:34:40.961Z,100984.05
2022-08-09T02:37:22.492Z,100979.09
2022-08-09T02:40:03.028Z,100978.76
2022-08-09T02:42:37.309Z,100981.31
2022-08-09T02:45:12.240Z,100980.73
2022-08-09T02:47:57.266Z,100981.41
2022-08-09T02:50:32.757Z,100980.09
2022-08-09T02:53:25.724Z,100977.96
2022-08-09T02:55:58.999Z,100972.67
2022-08-09T02:58:35.252Z,100974.41
2022-08-09T03:01:10.838Z,100976.21
2022-08-09T03:04:17.806Z,100977.84
2022-08-09T03:06:31.647Z,100978.77
2022-08-09T03:09:03.350Z,100976.91
2022-08-09T03:12:05.283Z,100978.31
2022-08-09T03:14:28.127Z,100978.50
2022-08-09T03:16:59.753Z,100978.73
2022-08-09T03:19:59.035Z,100980.09
2022-08-09T03:22:25.768Z,100982.93
2022-08-09T03:25:21.935Z,100985.20
2022-08-09T03:27:55.269Z,100985.48
2022-08-09T03:30:29.706Z,100985.65
2022-08-09T03:33:12.864Z,100982.00
2022-08-09T03:36:12.281Z,100981.67
2022-08-09T03:38:43.617Z,100986.78
2022-08-09T03:41:16.597Z,100987.27
2022-08-09T03:44:03.285Z,100980.50
2022-08-09T03:46:37.029Z,100979.95
2022-08-09T03:49:07.991Z,100981.37
2022-08-09T03:51:55.372Z,100982.67
2022-08-09T03:54:38.575Z,100976.69
2022-08-09T03:57:18.109Z,100976.83
2022-08-09T03:59:54.360Z,100978.63
2022-08-09T04:02:29.133Z,100975.76
2022-08-09T04:05:01.329Z,100971.08
2022-08-09T04:07:53.003Z,100972.80
2022-08-09T04:10:29.314Z,100971.71
2022-08-09T04:13:04.035Z,100968.91
2022-08-09T04:15:52.460Z,100971.43
2022-08-09T04:18:22.401Z,100970.63
2022-08-09T04:20:54.209Z,100969.56
2022-08-09T04:23:24.906Z,100966.19
2022-08-09T04:25:56.299Z,100972.24
2022-08-09T04:28:33.243Z,100968.38
2022-08-09T04:31:09.235Z,100974.40
2022-08-09T04:33:47.310Z,100976.66
2022-08-09T04:36:25.742Z,100973.83
2022-08-09T04:38:56.640Z,100972.52
2022-08-09T04:41:32.115Z,100973.27
2022-08-09T04:44:06.380Z,100974.05
2022-08-09T04:46:58.519Z,100969.02
2022-08-09T04:49:52.709Z,100965.94
2022-08-09T04:52:28.302Z,100969.11
2022-08-09T04:54:59.779Z,100962.84
2022-08-09T04:57:54.176Z,100959.32
2022-08-09T05:00:17.641Z,100963.54
2022-08-09T05:02:48.641Z,100973.23
2022-08-09T05:05:31.810Z,100961.13
2022-08-09T05:08:14.043Z,100955.31
2022-08-09T05:10:44.407Z,100960.33
2022-08-09T05:13:14.220Z,100970.45
2022-08-09T05:15:48.129Z,100978.42
2022-08-09T05:18:50.419Z,100976.11
2022-08-09T05:21:10.092Z,100966.85
2022-08-09T05:23:53.989Z,100971.35
2022-08-09T05:26:36.500Z,100980.78
2022-08-09T05:29:17.655Z,100986.64
2022-08-09T05:31:58.865Z,100990.86
2022-08-09T05:34:31.456Z,100989.85
2022-08-09T05:37:05.273Z,100985.43
2022-08-09T05:39:43.268Z,100987.79
2022-08-09T05:42:17.409Z,100986.11
2022-08-09T05:44:54.730Z,100989.09
2022-08-09T05:47:25.453Z,100991.83
2022-08-09T05:50:24.258Z,101000.57
2022-08-09T05:52:52.138Z,101000.65
2022-08-09T05:55:24.286Z,100998.00
2022-08-09T05:57:57.379Z,101000.44
2022-08-09T06:00:29.017Z,101005.45
2022-08-09T06:02:59.132Z,101008.08
2022-08-09T06:05:49.924Z,101008.89
2022-08-09T06:08:24.589Z,100999.67
2022-08-09T06:10:56.093Z,101001.00
2022-08-09T06:13:28.409Z,100994.20
2022-08-09T06:16:04.712Z,100996.31
2022-08-09T06:18:35.455Z,100999.09
2022-08-09T06:21:07.193Z,100999.59
2022-08-09T06:23:57.581Z,101000.79
2022-08-09T06:26:28.507Z,101005.09
2022-08-09T06:29:00.282Z,101003.15
2022-08-09T06:31:39.937Z,101009.48
2022-08-09T06:34:23.703Z,101010.98
2022-08-09T06:36:57.265Z,101007.71
2022-08-09T06:39:58.077Z,101005.32
2022-08-09T06:42:24.848Z,101007.55
2022-08-09T06:44:58.967Z,101011.66
2022-08-09T06:47:29.974Z,101007.26
2022-08-09T06:50:13.308Z,101008.02
2022-08-09T06:52:48.821Z,101008.28
2022-08-09T06:55:22.456Z,101010.05
2022-08-09T06:58:03.583Z,101008.20
2022-08-09T07:00:51.797Z,101011.91
2022-08-09T07:03:28.357Z,101009.58
2022-08-09T07:06:03.468Z,101011.23
2022-08-09T07:08:37.374Z,101016.86
2022-08-09T07:11:12.632Z,101017.33
2022-08-09T07:14:05.617Z,101017.47
2022-08-09T07:16:42.256Z,101016.86
2022-08-09T07:19:18.694Z,101011.73
2022-08-09T07:21:57.501Z,101013.70
2022-08-09T07:24:39.901Z,101019.44
2022-08-09T07:27:27.201Z,101018.81
2022-08-09T07:30:04.026Z,101014.67
2022-08-09T07:32:35.057Z,101014.39
2022-08-09T07:35:10.685Z,101013.43
2022-08-09T07:37:43.604Z,101010.73
2022-08-09T07:40:20.347Z,101012.91
2022-08-09T07:42:59.163Z,101009.41
2022-08-09T07:45:39.983Z,101010.40
2022-08-09T07:48:25.717Z,101010.52
2022-08-09T07:51:09.015Z,101008.67
2022-08-09T07:54:06.938Z,101005.98
2022-08-09T07:56:38.836Z,101006.21
2022-08-09T07:59:25.068Z,101004.66
2022-08-09T08:02:03.695Z,100999.78
2022-08-09T08:04:34.389Z,101001.13
2022-08-09T08:07:15.347Z,100995.23
2022-08-09T08:10:07.704Z,100999.06
2022-08-09T08:12:42.568Z,101000.67
2022-08-09T08:15:16.418Z,100996.84
2022-08-09T08:17:53.674Z,100996.09
2022-08-09T08:20:29.096Z,100996.37
2022-08-09T08:23:03.630Z,100995.44
2022-08-09T08:25:49.829Z,100990.77
2022-08-09T08:28:25.675Z,100989.09
2022-08-09T08:31:13.731Z,100983.93
2022-08-09T08:33:52.710Z,100982.83
2022-08-09T08:36:28.828Z,100982.41
2022-08-09T08:39:01.661Z,100986.50
2022-08-09T08:41:50.381Z,100984.14
2022-08-09T08:44:27.421Z,100985.90
2022-08-09T08:47:04.414Z,100983.40
2022-08-09T08:49:47.720Z,100982.89
2022-08-09T08:52:52.883Z,100988.22
2022-08-09T08:55:10.295Z,100986.23
2022-08-09T08:57:39.267Z,100985.55
2022-08-09T09:00:16.939Z,100983.77
2022-08-09T09:03:11.092Z,100980.86
2022-08-09T09:06:00.948Z,100980.13
2022-08-09T09:08:42.064Z,100980.64
2022-08-09T09:11:13.866Z,100976.44
2022-08-09T09:13:56.971Z,100973.12
2022-08-09T09:16:34.416Z,100968.88
2022-08-09T09:19:37.345Z,100966.23
2022-08-09T09:22:04.168Z,100964.85
2022-08-09T09:24:43.598Z,100964.78
2022-08-09T09:28:04.228Z,100962.43
2022-08-09T09:30:26.112Z,100961.70
2022-08-09T09:33:19.372Z,100959.66
2022-08-09T09:36:01.455Z,100960.74
2022-08-09T09:38:57.104Z,100955.10
2022-08-09T09:41:33.137Z,100958.11
2022-08-09T09:44:13.444Z,100960.84
2022-08-09T09:47:05.404Z,100958.41
2022-08-09T09:50:07.409Z,100957.55
2022-08-09T09:52:35.871Z,100955.16
2022-08-09T09:55:24.286Z,100956.17
2022-08-09T09:58:18.650Z,100954.09
2022-08-09T10:00:58.922Z,100955.92
2022-08-09T10:03:43.446Z,100953.17
2022-08-09T10:06:13.801Z,100949.94
2022-08-09T10:08:57.261Z,100950.48
2022-08-09T10:12:07.713Z,100949.14
2022-08-09T10:14:33.643Z,100946.00
2022-08-09T10:17:40.203Z,100947.41
2022-08-09T10:20:04.362Z,100947.25
2022-08-09T10:22:40.926Z,100943.30
2022-08-09T10:25:14.500Z,100945.80
2022-08-09T10:27:56.569Z,100944.00
2022-08-09T10:32:03.964Z,100943.11
2022-08-09T10:33:29.654Z,100939.25
2022-08-09T10:36:11.623Z,100935.27
2022-08-09T10:38:57.308Z,100937.70
2022-08-09T10:41:29.426Z,100931.29
2022-08-09T10:44:01.835Z,100932.58
2022-08-09T10:48:16.431Z,100926.90
2022-08-09T10:50:27.029Z,100927.04
2022-08-09T10:53:19.971Z,100930.29
2022-08-09T10:56:27.774Z,100923.89
2022-08-09T10:58:59.554Z,100922.37
2022-08-09T11:03:11.890Z,100918.02
2022-08-09T11:04:30.760Z,100914.69
2022-08-09T11:07:01.139Z,100908.04
2022-08-09T11:09:41.060Z,100905.77
2022-08-09T11:12:29.892Z,100910.20
2022-08-09T11:15:01.826Z,100909.66
2022-08-09T11:17:31.218Z,100900.94
2022-08-09T11:20:11.059Z,100900.96
2022-08-09T11:22:56.525Z,100900.81
2022-08-09T11:25:44.922Z,100902.60
2022-08-09T11:28:38.629Z,100901.79
2022-08-09T11:31:49.919Z,100898.77
2022-08-09T11:34:51.560Z,100897.08
2022-08-09T11:37:41.012Z,100892.59
2022-08-09T11:40:13.770Z,100887.23
2022-08-09T11:42:53.002Z,100887.09
2022-08-09T11:45:42.304Z,100889.44
2022-08-09T11:48:17.430Z,100878.27
2022-08-09T11:52:49.538Z,100879.25
2022-08-09T11:54:00.532Z,100875.24
2022-08-09T11:56:41.554Z,100867.05
2022-08-09T11:59:29.946Z,100865.63
2022-08-09T12:02:37.276Z,100868.25
2022-08-09T12:04:58.213Z,100862.30
2022-08-09T12:07:41.666Z,100861.31
2022-08-09T12:10:32.018Z,100858.52
2022-08-09T12:13:03.866Z,100854.48
2022-08-09T12:15:52.423Z,100852.00
2022-08-09T12:18:30.366Z,100849.67
2022-08-09T12:21:26.338Z,100852.55
2022-08-09T12:24:08.666Z,100852.61
2022-08-09T12:29:00.101Z,100847.27
2022-08-09T12:30:01.702Z,100844.16
2022-08-09T12:32:44.404Z,100840.37
2022-08-09T12:35:19.241Z,100836.38
2022-08-09T12:37:52.252Z,100829.67
2022-08-09T12:40:27.492Z,100826.60
2022-08-09T12:42:56.729Z,100828.43
2022-08-09T12:45:32.586Z,100823.28
2022-08-09T12:48:19.850Z,100814.41
2022-08-09T12:50:54.023Z,100810.17
2022-08-09T12:53:33.434Z,100811.77
2022-08-09T12:56:29.793Z,100808.91
2022-08-09T12:59:20.851Z,100803.02
2022-08-09T13:02:10.051Z,100797.94
2022-08-09T13:04:40.101Z,100796.98
2022-08-09T13:07:19.802Z,100799.20
2022-08-09T13:10:04.932Z,100800.98
2022-08-09T13:12:39.825Z,100797.40
2022-08-09T13:15:23.156Z,100793.70
2022-08-09T13:18:04.728Z,100790.68
2022-08-09T13:20:50.320Z,100793.13
2022-08-09T13:24:17.265Z,100792.07
2022-08-09T13:26:39.151Z,100788.00
2022-08-09T13:29:10.632Z,100781.65
2022-08-09T13:32:20.059Z,100782.66
2022-08-09T13:34:55.175Z,100783.80
2022-08-09T13:37:51.106Z,100780.73
2022-08-09T13:41:50.970Z,100776.91
2022-08-09T13:43:05.251Z,100772.55
2022-08-09T13:46:43.015Z,100766.52
2022-08-09T13:48:27.209Z,100760.91
2022-08-09T13:50:58.881Z,100766.89
2022-08-09T13:53:41.410Z,100762.60
2022-08-09T13:56:12.364Z,100766.11
2022-08-09T13:58:41.529Z,100768.23
2022-08-09T14:01:13.575Z,100762.67
2022-08-09T14:04:03.250Z,100760.79
2022-08-09T14:06:36.937Z,100758.23
2022-08-09T14:09:09.530Z,100746.94
2022-08-09T14:11:41.313Z,100746.92
2022-08-09T14:14:26.804Z,100744.91
2022-08-09T14:16:58.633Z,100744.80
2022-08-09T14:19:33.100Z,100751.03
2022-08-09T14:22:02.036Z,100743.58
2022-08-09T14:24:32.130Z,100741.45
2022-08-09T14:27:01.603Z,100740.59
2022-08-09T14:30:34.725Z,100743.63
2022-08-09T14:32:20.090Z,100738.83
2022-08-09T14:34:59.717Z,100739.16
2022-08-09T14:37:40.882Z,100737.34
2022-08-09T14:40:17.803Z,100735.73
2022-08-09T14:42:49.027Z,100735.65
2022-08-09T14:46:58.876Z,100735.31
2022-08-09T14:48:06.538Z,100740.52
2022-08-09T14:50:37.235Z,100741.58
2022-08-09T14:53:12.997Z,100738.62
2022-08-09T14:55:49.970Z,100741.34
2022-08-09T14:58:20.085Z,100736.92
2022-08-09T15:00:51.165Z,100740.15
2022-08-09T15:03:21.269Z,100738.37
2022-08-09T15:05:54.707Z,100737.02
2022-08-09T15:08:30.201Z,100736.70
2022-08-09T15:11:00.542Z,100733.56
2022-08-09T15:13:48.133Z,100735.01
2022-08-09T15:16:22.450Z,100731.88
2022-08-09T15:18:52.348Z,100732.99
2022-08-09T15:21:55.920Z,100730.74
2022-08-09T15:24:13.915Z,100732.76
2022-08-09T15:26:47.924Z,100734.45
2022-08-09T15:30:57.173Z,100735.23
2022-08-09T15:32:29.793Z,100734.08
2022-08-09T15:35:00.656Z,100733.42
2022-08-09T15:37:37.032Z,100733.94
2022-08-09T15:40:11.653Z,100732.50
2022-08-09T15:42:42.477Z,100734.67
2022-08-09T15:45:13.942Z,100731.38
2022-08-09T15:48:01.694Z,100729.14
2022-08-09T15:50:39.082Z,100730.92
2022-08-09T15:54:02.037Z,100735.08
2022-08-09T15:56:21.052Z,100732.20
2022-08-09T15:58:46.348Z,100734.04
2022-08-09T16:01:15.438Z,100738.91
2022-08-09T16:03:44.059Z,100738.58
2022-08-09T16:06:27.279Z,100737.94
2022-08-09T16:09:04.946Z,100737.23
2022-08-09T16:11:34.169Z,100740.25
2022-08-09T16:14:07.920Z,100738.30
2022-08-09T16:16:37.868Z,100739.39
2022-08-09T16:19:08.765Z,100744.56
2022-08-09T16:21:39.179Z,100746.43
2022-08-09T16:24:20.107Z,100752.85
2022-08-09T16:26:58.818Z,100766.34
2022-08-09T16:29:37.830Z,100777.46
2022-08-09T16:32:33.489Z,100787.02
2022-08-09T16:35:06.310Z,100794.48
2022-08-09T16:37:55.627Z,100795.02
2022-08-09T16:40:34.023Z,100807.27
2022-08-09T16:43:09.894Z,100813.34
2022-08-09T16:45:44.310Z,100818.09
2022-08-09T16:48:43.401Z,100817.45
2022-08-09T16:52:02.653Z,100816.67
2022-08-09T16:54:34.901Z,100814.30
2022-08-09T16:57:03.957Z,100817.79
2022-08-09T16:59:34.629Z,100815.66
2022-08-09T17:02:04.205Z,100815.43
2022-08-09T17:04:34.834Z,100811.60
2022-08-09T17:08:46.217Z,100813.80
2022-08-09T17:10:01.715Z,100810.20
2022-08-09T17:12:38.251Z,100805.60
2022-08-09T17:15:31.359Z,100804.17
2022-08-09T17:18:00.859Z,100805.01
2022-08-09T17:20:36.960Z,100804.73
2022-08-09T17:23:14.739Z,100802.88
2022-08-09T17:25:45.446Z,100799.13
2022-08-09T17:28:22.172Z,100805.77
2022-08-09T17:30:52.035Z,100806.77
2022-08-09T17:33:22.376Z,100809.38
2022-08-09T17:35:52.327Z,100807.78
2022-08-09T17:38:30.519Z,100806.94
2022-08-09T17:41:03.311Z,100805.08
2022-08-09T17:43:37.009Z,100806.82
2022-08-09T17:46:09.155Z,100805.48
2022-08-09T17:48:52.001Z,100805.67
2022-08-09T17:51:22.281Z,100803.99
2022-08-09T17:53:55.475Z,100805.05
2022-08-09T17:56:35.540Z,100810.06
2022-08-09T17:59:11.880Z,100814.98
2022-08-09T18:02:07.704Z,100825.39
2022-08-09T18:04:33.644Z,100840.65
2022-08-09T18:07:04.681Z,100840.26
2022-08-09T18:09:35.698Z,100841.30
2022-08-09T18:12:20.204Z,100841.95
2022-08-09T18:14:54.398Z,100843.70
2022-08-09T18:17:27.104Z,100849.27
2022-08-09T18:20:56.592Z,100847.59
2022-08-09T18:23:07.113Z,100841.23
2022-08-09T18:25:53.292Z,100844.71
2022-08-09T18:30:37.646Z,100840.74
2022-08-09T18:31:24.679Z,100838.03
2022-08-09T18:34:01.789Z,100840.45
2022-08-09T18:37:48.173Z,100840.40
2022-08-09T18:40:19.373Z,100841.64
2022-08-09T18:42:55.740Z,100849.18
2022-08-09T18:46:50.679Z,100864.98
2022-08-09T18:48:13.197Z,100877.73
2022-08-09T18:50:46.541Z,100879.34
2022-08-09T18:53:16.579Z,100880.48
2022-08-09T18:55:56.855Z,100885.77
2022-08-09T18:58:33.945Z,100882.58
2022-08-09T19:01:03.763Z,100891.99
2022-08-09T19:03:38.481Z,100895.52
2022-08-09T19:06:21.882Z,100895.88
2022-08-09T19:09:02.124Z,100895.95
2022-08-09T19:11:37.739Z,100906.95
2022-08-09T19:14:08.035Z,100913.95
2022-08-09T19:16:38.152Z,100922.83
2022-08-09T19:19:26.140Z,100926.42
2022-08-09T19:22:06.912Z,100935.90
2022-08-09T19:25:11.386Z,100941.42
2022-08-09T19:27:28.773Z,100948.46
2022-08-09T19:30:24.620Z,100950.97
2022-08-09T19:32:46.709Z,100957.63
2022-08-09T19:35:26.249Z,100962.76
2022-08-09T19:37:57.425Z,100969.02
2022-08-09T19:40:34.170Z,100978.87
2022-08-09T19:43:10.273Z,100979.88
2022-08-09T19:46:50.564Z,100986.77
2022-08-09T19:50:06.876Z,100992.13
2022-08-09T19:52:21.216Z,100987.48
2022-08-09T19:54:50.029Z,100987.73
2022-08-09T19:57:18.822Z,100988.18
2022-08-09T19:59:59.139Z,100987.94
2022-08-09T20:04:11.124Z,100991.13
2022-08-09T20:05:27.945Z,100992.23
2022-08-09T20:08:00.409Z,100992.91
2022-08-09T20:10:36.720Z,100992.70
2022-08-09T20:13:08.462Z,100988.91
2022-08-09T20:16:32.858Z,100987.14
2022-08-09T20:19:47.880Z,100988.79
2022-08-09T20:22:32.437Z,100990.58
2022-08-09T20:25:07.185Z,100988.52
2022-08-09T20:27:36.962Z,100990.97
2022-08-09T20:30:07.396Z,100993.91
2022-08-09T20:32:39.059Z,100993.98
2022-08-09T20:35:08.787Z,100988.60
2022-08-09T20:38:20.645Z,100991.66
2022-08-09T20:40:30.340Z,100992.59
2022-08-09T20:43:18.576Z,101001.20
2022-08-09T20:46:00.076Z,101001.00
2022-08-09T20:48:39.166Z,101004.33
2022-08-09T20:51:08.058Z,100994.88
2022-08-09T20:53:49.112Z,101006.83
2022-08-09T20:56:26.125Z,101025.08
2022-08-09T20:58:58.831Z,101032.90
2022-08-09T21:01:34.767Z,101030.36
2022-08-09T21:05:53.363Z,101031.83
2022-08-09T21:07:12.060Z,101030.94
2022-08-09T21:09:45.876Z,101037.34
2022-08-09T21:15:23.463Z,101040.06
2022-08-09T21:18:22.980Z,101038.52
2022-08-09T21:20:45.139Z,101033.11
2022-08-09T21:23:29.221Z,101027.73
2022-08-09T21:26:15.679Z,101021.36
2022-08-09T21:28:55.576Z,101019.25
2022-08-09T21:31:48.149Z,101016.16
2022-08-09T21:34:21.061Z,101008.81
2022-08-09T21:36:58.062Z,101004.73
2022-08-09T21:39:28.055Z,101004.95
2022-08-09T21:42:11.718Z,100998.04
2022-08-09T21:44:42.868Z,101002.57
2022-08-09T21:47:18.121Z,101001.80
2022-08-09T21:49:48.394Z,100996.63
2022-08-09T21:52:20.509Z,100994.83
2022-08-09T21:55:03.046Z,100986.20
2022-08-09T21:57:39.512Z,100986.52
2022-08-09T22:00:32.633Z,100978.27
2022-08-09T22:03:07.071Z,100976.63
2022-08-09T22:05:42.153Z,100974.07
2022-08-09T22:08:17.026Z,100971.71
2022-08-09T22:11:00.540Z,100972.64
2022-08-09T22:13:36.699Z,100971.49
2022-08-09T22:16:09.337Z,100961.54
2022-08-09T22:18:53.198Z,100965.79
2022-08-09T22:21:27.656Z,100965.08
2022-08-09T22:24:16.865Z,100970.04
2022-08-09T22:26:47.879Z,100972.61
2022-08-09T22:29:28.466Z,100972.63
2022-08-09T22:32:01.434Z,100963.92
2022-08-09T22:34:30.121Z,100959.28
2022-08-09T22:37:00.152Z,100955.61
2022-08-09T22:39:56.413Z,100956.55
2022-08-09T22:42:22.382Z,100959.11
2022-08-09T22:48:05.934Z,100959.50
2022-08-09T22:48:33.859Z,100958.34
2022-08-09T22:50:33.714Z,100956.33
2022-08-09T22:53:03.941Z,100959.82
2022-08-09T22:56:06.030Z,100957.64
2022-08-09T22:58:32.571Z,100957.09
2022-08-09T23:01:03.631Z,100951.67
2022-08-09T23:04:05.590Z,100955.38
2022-08-09T23:06:35.024Z,100954.95
2022-08-09T23:09:07.132Z,100949.36
2022-08-09T23:11:35.923Z,100947.49
2022-08-09T23:14:10.194Z,100940.73
2022-08-09T23:16:46.324Z,100941.92
2022-08-09T23:19:15.094Z,100941.16
2022-08-09T23:21:43.676Z,100938.51
2022-08-09T23:24:12.568Z,100934.52
2022-08-09T23:26:41.194Z,100933.48
2022-08-09T23:29:14.009Z,100935.86
2022-08-09T23:31:43.261Z,100932.67
2022-08-09T23:34:11.823Z,100932.40
2022-08-09T23:36:40.722Z,100935.11
2022-08-09T23:39:09.578Z,100934.14
2022-08-09T23:41:38.196Z,100938.82
2022-08-09T23:44:07.003Z,100933.67
2022-08-09T23:46:35.772Z,100931.65
2022-08-09T23:49:04.528Z,100933.53
2022-08-09T23:51:33.248Z,100939.96
2022-08-09T23:54:03.430Z,100932.80
2022-08-09T23:56:52.371Z,100937.48
2022-08-09T23:59:23.990Z,100938.66
